sensor_id;sensor_type;location;lat;lon;timestamp;temperature;humidity
65478;SHT31;53678;39.642;22.430;2022-10-19T00:00:47;12.64;77.12
65478;SHT31;53678;39.642;22.430;2022-10-19T00:03:14;12.67;77.04
65478;SHT31;53678;39.642;22.430;2022-10-19T00:05:40;12.72;77.11
65478;SHT31;53678;39.642;22.430;2022-10-19T00:08:06;12.76;77.04
65478;SHT31;53678;39.642;22.430;2022-10-19T00:10:32;12.85;76.59
65478;SHT31;53678;39.642;22.430;2022-10-19T00:12:58;12.84;76.21
65478;SHT31;53678;39.642;22.430;2022-10-19T00:15:24;12.76;76.59
65478;SHT31;53678;39.642;22.430;2022-10-19T00:17:50;12.77;76.62
65478;SHT31;53678;39.642;22.430;2022-10-19T00:20:15;12.74;76.52
65478;SHT31;53678;39.642;22.430;2022-10-19T00:22:41;12.68;76.53
65478;SHT31;53678;39.642;22.430;2022-10-19T00:25:07;12.59;76.93
65478;SHT31;53678;39.642;22.430;2022-10-19T00:27:33;12.46;77.32
65478;SHT31;53678;39.642;22.430;2022-10-19T00:30:00;12.43;77.44
65478;SHT31;53678;39.642;22.430;2022-10-19T00:32:26;12.43;77.38
65478;SHT31;53678;39.642;22.430;2022-10-19T00:34:52;12.46;77.48
65478;SHT31;53678;39.642;22.430;2022-10-19T00:37:18;12.12;78.11
65478;SHT31;53678;39.642;22.430;2022-10-19T00:39:43;12.09;78.61
65478;SHT31;53678;39.642;22.430;2022-10-19T00:42:10;12.15;78.01
65478;SHT31;53678;39.642;22.430;2022-10-19T00:47:04;11.89;78.19
65478;SHT31;53678;39.642;22.430;2022-10-19T00:49:33;11.91;78.16
65478;SHT31;53678;39.642;22.430;2022-10-19T00:52:03;11.79;77.67
65478;SHT31;53678;39.642;22.430;2022-10-19T00:54:34;11.77;78.22
65478;SHT31;53678;39.642;22.430;2022-10-19T00:57:02;11.81;78.15
65478;SHT31;53678;39.642;22.430;2022-10-19T00:59:29;11.81;78.08
65478;SHT31;53678;39.642;22.430;2022-10-19T01:01:59;11.85;77.60
65478;SHT31;53678;39.642;22.430;2022-10-19T01:04:28;11.94;77.52
65478;SHT31;53678;39.642;22.430;2022-10-19T01:06:55;11.79;76.95
65478;SHT31;53678;39.642;22.430;2022-10-19T01:09:22;11.78;76.07
65478;SHT31;53678;39.642;22.430;2022-10-19T01:17:43;10.98;77.86
65478;SHT31;53678;39.642;22.430;2022-10-19T01:31:14;11.12;77.73
65478;SHT31;53678;39.642;22.430;2022-10-19T01:44:18;10.98;79.13
65478;SHT31;53678;39.642;22.430;2022-10-19T01:46:52;11.06;78.67
65478;SHT31;53678;39.642;22.430;2022-10-19T01:49:53;11.18;78.44
65478;SHT31;53678;39.642;22.430;2022-10-19T01:52:22;11.20;78.51
65478;SHT31;53678;39.642;22.430;2022-10-19T01:54:53;11.22;78.22
65478;SHT31;53678;39.642;22.430;2022-10-19T01:57:24;11.00;79.45
65478;SHT31;53678;39.642;22.430;2022-10-19T01:59:52;10.81;80.98
65478;SHT31;53678;39.642;22.430;2022-10-19T02:02:19;10.96;80.81
65478;SHT31;53678;39.642;22.430;2022-10-19T02:04:48;10.99;79.55
65478;SHT31;53678;39.642;22.430;2022-10-19T02:07:15;10.96;79.57
65478;SHT31;53678;39.642;22.430;2022-10-19T02:09:41;10.98;79.28
65478;SHT31;53678;39.642;22.430;2022-10-19T02:12:09;10.92;79.71
65478;SHT31;53678;39.642;22.430;2022-10-19T02:14:41;10.92;79.86
65478;SHT31;53678;39.642;22.430;2022-10-19T02:17:14;11.03;79.29
65478;SHT31;53678;39.642;22.430;2022-10-19T02:19:41;11.09;79.17
65478;SHT31;53678;39.642;22.430;2022-10-19T02:22:07;11.12;78.95
65478;SHT31;53678;39.642;22.430;2022-10-19T02:24:33;11.12;78.81
65478;SHT31;53678;39.642;22.430;2022-10-19T02:26:59;11.22;78.42
65478;SHT31;53678;39.642;22.430;2022-10-19T02:29:26;11.03;78.94
65478;SHT31;53678;39.642;22.430;2022-10-19T02:31:52;10.82;79.88
65478;SHT31;53678;39.642;22.430;2022-10-19T02:34:19;10.65;80.36
65478;SHT31;53678;39.642;22.430;2022-10-19T02:36:44;10.79;79.99
65478;SHT31;53678;39.642;22.430;2022-10-19T02:39:10;10.86;79.41
65478;SHT31;53678;39.642;22.430;2022-10-19T02:41:50;10.93;79.00
65478;SHT31;53678;39.642;22.430;2022-10-19T02:44:22;11.00;78.65
65478;SHT31;53678;39.642;22.430;2022-10-19T02:47:01;11.02;78.67
65478;SHT31;53678;39.642;22.430;2022-10-19T02:49:33;10.98;78.54
65478;SHT31;53678;39.642;22.430;2022-10-19T02:52:03;10.98;78.72
65478;SHT31;53678;39.642;22.430;2022-10-19T02:54:29;11.09;77.93
65478;SHT31;53678;39.642;22.430;2022-10-19T02:56:55;11.09;78.41
65478;SHT31;53678;39.642;22.430;2022-10-19T02:59:21;11.15;78.07
65478;SHT31;53678;39.642;22.430;2022-10-19T03:01:47;11.16;77.63
65478;SHT31;53678;39.642;22.430;2022-10-19T03:04:13;11.12;77.20
65478;SHT31;53678;39.642;22.430;2022-10-19T03:06:39;11.05;77.51
65478;SHT31;53678;39.642;22.430;2022-10-19T03:09:05;10.98;78.20
65478;SHT31;53678;39.642;22.430;2022-10-19T03:11:31;10.93;78.19
65478;SHT31;53678;39.642;22.430;2022-10-19T03:13:56;10.98;78.04
65478;SHT31;53678;39.642;22.430;2022-10-19T03:16:22;11.02;77.65
65478;SHT31;53678;39.642;22.430;2022-10-19T03:18:49;11.06;77.12
65478;SHT31;53678;39.642;22.430;2022-10-19T03:21:15;11.02;77.49
65478;SHT31;53678;39.642;22.430;2022-10-19T03:23:41;10.99;77.70
65478;SHT31;53678;39.642;22.430;2022-10-19T03:26:12;11.02;77.72
65478;SHT31;53678;39.642;22.430;2022-10-19T03:28:38;11.06;77.77
65478;SHT31;53678;39.642;22.430;2022-10-19T03:31:04;11.09;77.20
65478;SHT31;53678;39.642;22.430;2022-10-19T03:33:30;10.99;77.67
65478;SHT31;53678;39.642;22.430;2022-10-19T03:36:22;11.00;77.55
65478;SHT31;53678;39.642;22.430;2022-10-19T03:38:52;11.05;77.53
65478;SHT31;53678;39.642;22.430;2022-10-19T03:41:20;11.09;77.43
65478;SHT31;53678;39.642;22.430;2022-10-19T03:43:46;11.09;77.23
65478;SHT31;53678;39.642;22.430;2022-10-19T03:46:13;11.03;77.74
65478;SHT31;53678;39.642;22.430;2022-10-19T03:48:39;11.06;77.89
65478;SHT31;53678;39.642;22.430;2022-10-19T03:51:07;10.95;77.43
65478;SHT31;53678;39.642;22.430;2022-10-19T03:53:34;10.95;77.77
65478;SHT31;53678;39.642;22.430;2022-10-19T03:56:04;10.96;77.63
65478;SHT31;53678;39.642;22.430;2022-10-19T03:58:33;10.82;77.93
65478;SHT31;53678;39.642;22.430;2022-10-19T04:00:59;10.76;78.05
65478;SHT31;53678;39.642;22.430;2022-10-19T04:03:25;10.71;78.56
65478;SHT31;53678;39.642;22.430;2022-10-19T04:05:51;10.55;78.76
65478;SHT31;53678;39.642;22.430;2022-10-19T04:08:17;10.38;79.40
65478;SHT31;53678;39.642;22.430;2022-10-19T04:10:44;10.31;79.47
65478;SHT31;53678;39.642;22.430;2022-10-19T04:13:09;10.24;79.83
65478;SHT31;53678;39.642;22.430;2022-10-19T04:15:35;10.23;79.83
65478;SHT31;53678;39.642;22.430;2022-10-19T04:18:01;10.16;79.99
65478;SHT31;53678;39.642;22.430;2022-10-19T04:20:27;10.07;80.58
65478;SHT31;53678;39.642;22.430;2022-10-19T04:22:53;10.21;79.79
65478;SHT31;53678;39.642;22.430;2022-10-19T04:25:19;10.21;80.26
65478;SHT31;53678;39.642;22.430;2022-10-19T04:27:46;10.36;79.50
65478;SHT31;53678;39.642;22.430;2022-10-19T04:30:11;10.45;79.19
65478;SHT31;53678;39.642;22.430;2022-10-19T04:32:37;10.55;78.38
65478;SHT31;53678;39.642;22.430;2022-10-19T04:35:03;10.36;79.52
65478;SHT31;53678;39.642;22.430;2022-10-19T04:37:29;10.14;80.23
65478;SHT31;53678;39.642;22.430;2022-10-19T04:39:55;10.06;80.53
65478;SHT31;53678;39.642;22.430;2022-10-19T04:42:21;10.20;80.07
65478;SHT31;53678;39.642;22.430;2022-10-19T04:44:46;10.25;79.61
65478;SHT31;53678;39.642;22.430;2022-10-19T04:47:12;10.16;79.90
65478;SHT31;53678;39.642;22.430;2022-10-19T04:49:38;10.13;80.18
65478;SHT31;53678;39.642;22.430;2022-10-19T04:52:04;10.18;80.46
65478;SHT31;53678;39.642;22.430;2022-10-19T04:54:30;10.13;81.09
65478;SHT31;53678;39.642;22.430;2022-10-19T04:56:56;10.38;79.27
65478;SHT31;53678;39.642;22.430;2022-10-19T04:59:21;10.31;80.23
65478;SHT31;53678;39.642;22.430;2022-10-19T05:01:47;10.50;79.54
65478;SHT31;53678;39.642;22.430;2022-10-19T05:04:13;10.58;78.84
65478;SHT31;53678;39.642;22.430;2022-10-19T05:06:39;10.52;80.03
65478;SHT31;53678;39.642;22.430;2022-10-19T05:09:06;11.02;78.17
65478;SHT31;53678;39.642;22.430;2022-10-19T05:11:31;10.61;78.98
65478;SHT31;53678;39.642;22.430;2022-10-19T05:13:57;10.41;80.19
65478;SHT31;53678;39.642;22.430;2022-10-19T05:16:24;10.29;80.04
65478;SHT31;53678;39.642;22.430;2022-10-19T05:18:52;10.33;80.53
65478;SHT31;53678;39.642;22.430;2022-10-19T05:21:20;10.52;80.43
65478;SHT31;53678;39.642;22.430;2022-10-19T05:23:50;10.47;80.53
65478;SHT31;53678;39.642;22.430;2022-10-19T05:26:18;10.55;79.15
65478;SHT31;53678;39.642;22.430;2022-10-19T05:28:52;10.73;79.14
65478;SHT31;53678;39.642;22.430;2022-10-19T05:31:26;10.83;78.52
65478;SHT31;53678;39.642;22.430;2022-10-19T05:33:52;11.00;78.30
65478;SHT31;53678;39.642;22.430;2022-10-19T05:36:20;11.12;77.79
65478;SHT31;53678;39.642;22.430;2022-10-19T05:38:48;11.31;77.55
65478;SHT31;53678;39.642;22.430;2022-10-19T05:41:15;11.40;77.04
65478;SHT31;53678;39.642;22.430;2022-10-19T05:43:42;12.64;72.38
65478;SHT31;53678;39.642;22.430;2022-10-19T05:46:10;13.63;68.42
65478;SHT31;53678;39.642;22.430;2022-10-19T05:48:37;14.17;66.55
65478;SHT31;53678;39.642;22.430;2022-10-19T05:51:04;14.59;65.22
65478;SHT31;53678;39.642;22.430;2022-10-19T05:53:31;15.06;63.66
65478;SHT31;53678;39.642;22.430;2022-10-19T05:55:57;15.55;62.55
65478;SHT31;53678;39.642;22.430;2022-10-19T05:58:23;15.64;62.78
65478;SHT31;53678;39.642;22.430;2022-10-19T06:00:54;15.81;61.99
65478;SHT31;53678;39.642;22.430;2022-10-19T06:03:20;16.32;60.66
65478;SHT31;53678;39.642;22.430;2022-10-19T06:05:50;16.42;59.79
65478;SHT31;53678;39.642;22.430;2022-10-19T06:08:17;14.69;64.10
65478;SHT31;53678;39.642;22.430;2022-10-19T06:10:44;14.31;66.55
65478;SHT31;53678;39.642;22.430;2022-10-19T06:13:10;15.02;64.32
65478;SHT31;53678;39.642;22.430;2022-10-19T06:15:37;14.38;66.36
65478;SHT31;53678;39.642;22.430;2022-10-19T06:18:11;15.10;64.39
65478;SHT31;53678;39.642;22.430;2022-10-19T06:20:39;16.09;61.57
65478;SHT31;53678;39.642;22.430;2022-10-19T06:23:06;18.00;56.34
65478;SHT31;53678;39.642;22.430;2022-10-19T06:25:33;16.54;60.22
65478;SHT31;53678;39.642;22.430;2022-10-19T06:28:00;16.98;60.28
65478;SHT31;53678;39.642;22.430;2022-10-19T06:30:26;16.94;60.32
65478;SHT31;53678;39.642;22.430;2022-10-19T06:32:52;14.93;64.76
65478;SHT31;53678;39.642;22.430;2022-10-19T06:35:18;15.20;65.53
65478;SHT31;53678;39.642;22.430;2022-10-19T06:37:44;15.88;61.86
65478;SHT31;53678;39.642;22.430;2022-10-19T06:40:10;16.54;60.51
65478;SHT31;53678;39.642;22.430;2022-10-19T06:42:36;15.79;61.61
65478;SHT31;53678;39.642;22.430;2022-10-19T06:45:09;15.53;63.64
65478;SHT31;53678;39.642;22.430;2022-10-19T06:47:35;15.07;66.00
65478;SHT31;53678;39.642;22.430;2022-10-19T06:50:03;15.55;64.05
65478;SHT31;53678;39.642;22.430;2022-10-19T06:52:29;15.33;64.44
65478;SHT31;53678;39.642;22.430;2022-10-19T06:54:55;13.16;70.16
65478;SHT31;53678;39.642;22.430;2022-10-19T06:57:22;14.45;67.19
65478;SHT31;53678;39.642;22.430;2022-10-19T06:59:48;14.99;65.93
65478;SHT31;53678;39.642;22.430;2022-10-19T07:02:14;15.74;63.89
65478;SHT31;53678;39.642;22.430;2022-10-19T07:04:40;15.78;62.68
65478;SHT31;53678;39.642;22.430;2022-10-19T07:07:06;15.55;62.76
65478;SHT31;53678;39.642;22.430;2022-10-19T07:09:32;15.98;62.08
65478;SHT31;53678;39.642;22.430;2022-10-19T07:11:58;15.74;62.93
65478;SHT31;53678;39.642;22.430;2022-10-19T07:14:24;15.55;63.75
65478;SHT31;53678;39.642;22.430;2022-10-19T07:16:53;15.96;63.27
65478;SHT31;53678;39.642;22.430;2022-10-19T07:19:20;15.92;63.81
65478;SHT31;53678;39.642;22.430;2022-10-19T07:21:49;15.88;64.33
65478;SHT31;53678;39.642;22.430;2022-10-19T07:24:15;15.89;64.46
65478;SHT31;53678;39.642;22.430;2022-10-19T07:26:41;15.85;64.17
65478;SHT31;53678;39.642;22.430;2022-10-19T07:29:07;16.19;64.36
65478;SHT31;53678;39.642;22.430;2022-10-19T07:31:33;16.20;63.72
65478;SHT31;53678;39.642;22.430;2022-10-19T07:34:03;16.23;63.23
65478;SHT31;53678;39.642;22.430;2022-10-19T07:36:31;16.63;62.43
65478;SHT31;53678;39.642;22.430;2022-10-19T07:38:57;16.52;62.27
65478;SHT31;53678;39.642;22.430;2022-10-19T07:41:25;16.91;61.36
65478;SHT31;53678;39.642;22.430;2022-10-19T07:43:51;17.11;61.66
65478;SHT31;53678;39.642;22.430;2022-10-19T07:46:20;16.84;61.44
65478;SHT31;53678;39.642;22.430;2022-10-19T07:48:46;17.00;60.86
65478;SHT31;53678;39.642;22.430;2022-10-19T07:51:14;17.28;60.28
65478;SHT31;53678;39.642;22.430;2022-10-19T07:53:40;17.04;60.00
65478;SHT31;53678;39.642;22.430;2022-10-19T07:56:09;17.29;59.72
65478;SHT31;53678;39.642;22.430;2022-10-19T07:58:35;17.43;59.67
65478;SHT31;53678;39.642;22.430;2022-10-19T08:01:04;17.07;59.73
65478;SHT31;53678;39.642;22.430;2022-10-19T08:03:30;17.31;58.35
65478;SHT31;53678;39.642;22.430;2022-10-19T08:06:01;17.50;57.56
65478;SHT31;53678;39.642;22.430;2022-10-19T08:08:28;17.79;57.27
65478;SHT31;53678;39.642;22.430;2022-10-19T08:10:55;18.05;56.20
65478;SHT31;53678;39.642;22.430;2022-10-19T08:13:21;17.52;57.55
65478;SHT31;53678;39.642;22.430;2022-10-19T08:15:46;17.97;57.13
65478;SHT31;53678;39.642;22.430;2022-10-19T08:18:13;18.27;56.61
65478;SHT31;53678;39.642;22.430;2022-10-19T08:20:42;18.22;56.50
65478;SHT31;53678;39.642;22.430;2022-10-19T08:23:09;18.31;56.52
65478;SHT31;53678;39.642;22.430;2022-10-19T08:25:35;18.25;55.36
65478;SHT31;53678;39.642;22.430;2022-10-19T08:28:02;18.04;56.40
65478;SHT31;53678;39.642;22.430;2022-10-19T08:30:28;18.07;56.42
65478;SHT31;53678;39.642;22.430;2022-10-19T08:32:54;18.24;56.91
65478;SHT31;53678;39.642;22.430;2022-10-19T08:35:20;18.24;55.95
65478;SHT31;53678;39.642;22.430;2022-10-19T08:37:45;18.31;55.88
65478;SHT31;53678;39.642;22.430;2022-10-19T08:40:18;18.38;56.04
65478;SHT31;53678;39.642;22.430;2022-10-19T08:43:01;18.24;56.64
65478;SHT31;53678;39.642;22.430;2022-10-19T08:45:36;17.93;56.68
65478;SHT31;53678;39.642;22.430;2022-10-19T08:48:20;18.31;55.78
65478;SHT31;53678;39.642;22.430;2022-10-19T08:50:47;18.66;54.32
65478;SHT31;53678;39.642;22.430;2022-10-19T08:56:26;18.90;54.44
65478;SHT31;53678;39.642;22.430;2022-10-19T08:59:05;19.02;53.76
65478;SHT31;53678;39.642;22.430;2022-10-19T09:04:11;17.91;56.25
65478;SHT31;53678;39.642;22.430;2022-10-19T09:09:49;18.21;56.23
65478;SHT31;53678;39.642;22.430;2022-10-19T09:12:23;18.72;55.07
65478;SHT31;53678;39.642;22.430;2022-10-19T09:14:58;18.93;54.58
65478;SHT31;53678;39.642;22.430;2022-10-19T09:17:26;19.13;54.37
65478;SHT31;53678;39.642;22.430;2022-10-19T09:19:53;18.89;55.06
65478;SHT31;53678;39.642;22.430;2022-10-19T09:22:28;18.66;56.62
65478;SHT31;53678;39.642;22.430;2022-10-19T09:25:00;18.44;57.33
65478;SHT31;53678;39.642;22.430;2022-10-19T09:27:33;18.49;58.06
65478;SHT31;53678;39.642;22.430;2022-10-19T09:30:04;18.80;56.68
65478;SHT31;53678;39.642;22.430;2022-10-19T09:32:37;18.86;55.20
65478;SHT31;53678;39.642;22.430;2022-10-19T09:35:25;19.27;53.88
65478;SHT31;53678;39.642;22.430;2022-10-19T09:37:53;19.23;54.38
65478;SHT31;53678;39.642;22.430;2022-10-19T09:40:28;19.53;53.79
65478;SHT31;53678;39.642;22.430;2022-10-19T09:42:54;19.14;54.17
65478;SHT31;53678;39.642;22.430;2022-10-19T09:45:51;19.06;54.22
65478;SHT31;53678;39.642;22.430;2022-10-19T09:48:38;18.86;54.05
65478;SHT31;53678;39.642;22.430;2022-10-19T09:51:11;19.14;54.04
65478;SHT31;53678;39.642;22.430;2022-10-19T09:53:46;19.20;53.59
65478;SHT31;53678;39.642;22.430;2022-10-19T09:56:21;19.38;53.30
65478;SHT31;53678;39.642;22.430;2022-10-19T09:58:53;19.68;52.70
65478;SHT31;53678;39.642;22.430;2022-10-19T10:01:37;19.69;52.75
65478;SHT31;53678;39.642;22.430;2022-10-19T10:04:14;19.07;53.15
65478;SHT31;53678;39.642;22.430;2022-10-19T10:06:41;19.26;53.18
65478;SHT31;53678;39.642;22.430;2022-10-19T10:09:16;19.71;52.10
65478;SHT31;53678;39.642;22.430;2022-10-19T10:11:45;19.38;52.10
65478;SHT31;53678;39.642;22.430;2022-10-19T10:14:32;19.72;51.54
65478;SHT31;53678;39.642;22.430;2022-10-19T10:17:17;19.50;51.71
65478;SHT31;53678;39.642;22.430;2022-10-19T10:22:35;19.74;49.58
65478;SHT31;53678;39.642;22.430;2022-10-19T10:25:11;19.67;50.10
65478;SHT31;53678;39.642;22.430;2022-10-19T10:27:38;19.58;50.87
65478;SHT31;53678;39.642;22.430;2022-10-19T10:30:08;19.67;49.82
65478;SHT31;53678;39.642;22.430;2022-10-19T10:32:49;19.75;49.85
65478;SHT31;53678;39.642;22.430;2022-10-19T10:35:41;19.95;48.86
65478;SHT31;53678;39.642;22.430;2022-10-19T10:38:16;19.88;47.88
65478;SHT31;53678;39.642;22.430;2022-10-19T10:40:54;19.93;48.15
65478;SHT31;53678;39.642;22.430;2022-10-19T10:43:31;19.79;49.04
65478;SHT31;53678;39.642;22.430;2022-10-19T10:46:14;19.78;49.10
65478;SHT31;53678;39.642;22.430;2022-10-19T10:48:43;19.85;48.31
65478;SHT31;53678;39.642;22.430;2022-10-19T10:54:13;20.10;47.54
65478;SHT31;53678;39.642;22.430;2022-10-19T10:56:42;20.36;47.01
65478;SHT31;53678;39.642;22.430;2022-10-19T10:59:17;20.47;46.19
65478;SHT31;53678;39.642;22.430;2022-10-19T11:02:03;20.77;45.70
65478;SHT31;53678;39.642;22.430;2022-10-19T11:04:45;20.81;45.17
65478;SHT31;53678;39.642;22.430;2022-10-19T11:07:23;20.83;46.69
65478;SHT31;53678;39.642;22.430;2022-10-19T11:10:01;20.64;45.80
65478;SHT31;53678;39.642;22.430;2022-10-19T11:12:48;20.55;45.71
65478;SHT31;53678;39.642;22.430;2022-10-19T11:15:19;20.48;45.38
65478;SHT31;53678;39.642;22.430;2022-10-19T11:18:15;20.78;44.41
65478;SHT31;53678;39.642;22.430;2022-10-19T11:20:51;20.99;43.96
65478;SHT31;53678;39.642;22.430;2022-10-19T11:23:30;20.94;44.35
65478;SHT31;53678;39.642;22.430;2022-10-19T11:26:03;20.65;44.52
65478;SHT31;53678;39.642;22.430;2022-10-19T11:31:48;20.15;44.25
65478;SHT31;53678;39.642;22.430;2022-10-19T11:37:04;20.48;44.69
65478;SHT31;53678;39.642;22.430;2022-10-19T11:40:39;20.70;43.83
65478;SHT31;53678;39.642;22.430;2022-10-19T11:45:23;20.67;44.84
65478;SHT31;53678;39.642;22.430;2022-10-19T11:53:21;20.88;44.25
65478;SHT31;53678;39.642;22.430;2022-10-19T11:56:02;21.11;44.18
65478;SHT31;53678;39.642;22.430;2022-10-19T11:58:54;21.36;43.94
65478;SHT31;53678;39.642;22.430;2022-10-19T12:14:32;21.28;42.92
65478;SHT31;53678;39.642;22.430;2022-10-19T12:17:04;21.52;42.83
65478;SHT31;53678;39.642;22.430;2022-10-19T12:19:37;21.36;43.07
65478;SHT31;53678;39.642;22.430;2022-10-19T12:22:06;21.33;42.85
65478;SHT31;53678;39.642;22.430;2022-10-19T12:24:35;21.33;43.92
65478;SHT31;53678;39.642;22.430;2022-10-19T12:27:01;21.36;43.17
65478;SHT31;53678;39.642;22.430;2022-10-19T12:29:33;21.29;43.23
65478;SHT31;53678;39.642;22.430;2022-10-19T12:32:01;21.32;43.11
65478;SHT31;53678;39.642;22.430;2022-10-19T12:34:59;21.41;43.09
65478;SHT31;53678;39.642;22.430;2022-10-19T12:43:00;21.54;42.54
65478;SHT31;53678;39.642;22.430;2022-10-19T12:45:32;21.54;42.15
65478;SHT31;53678;39.642;22.430;2022-10-19T12:56:16;21.49;41.43
65478;SHT31;53678;39.642;22.430;2022-10-19T13:03:41;21.89;40.43
65478;SHT31;53678;39.642;22.430;2022-10-19T13:06:17;21.94;40.65
65478;SHT31;53678;39.642;22.430;2022-10-19T13:08:47;21.79;40.41
65478;SHT31;53678;39.642;22.430;2022-10-19T13:11:20;21.89;40.02
65478;SHT31;53678;39.642;22.430;2022-10-19T13:16:39;21.77;40.97
65478;SHT31;53678;39.642;22.430;2022-10-19T13:21:52;21.76;41.05
65478;SHT31;53678;39.642;22.430;2022-10-19T13:24:25;21.64;41.19
65478;SHT31;53678;39.642;22.430;2022-10-19T13:38:18;21.66;41.97
65478;SHT31;53678;39.642;22.430;2022-10-19T13:43:23;21.74;42.00
65478;SHT31;53678;39.642;22.430;2022-10-19T14:08:45;21.29;44.11
65478;SHT31;53678;39.642;22.430;2022-10-19T14:11:23;21.28;43.52
65478;SHT31;53678;39.642;22.430;2022-10-19T14:14:15;21.50;42.37
65478;SHT31;53678;39.642;22.430;2022-10-19T14:16:55;21.56;42.52
65478;SHT31;53678;39.642;22.430;2022-10-19T14:21:56;21.47;43.31
65478;SHT31;53678;39.642;22.430;2022-10-19T14:24:34;21.50;42.90
65478;SHT31;53678;39.642;22.430;2022-10-19T14:27:05;21.50;42.90
65478;SHT31;53678;39.642;22.430;2022-10-19T14:29:43;21.67;42.40
65478;SHT31;53678;39.642;22.430;2022-10-19T14:32:10;21.77;41.89
65478;SHT31;53678;39.642;22.430;2022-10-19T14:35:02;21.63;42.20
65478;SHT31;53678;39.642;22.430;2022-10-19T14:37:30;21.64;42.04
65478;SHT31;53678;39.642;22.430;2022-10-19T14:40:15;21.46;42.57
65478;SHT31;53678;39.642;22.430;2022-10-19T14:42:46;21.43;42.38
65478;SHT31;53678;39.642;22.430;2022-10-19T14:45:21;21.31;42.71
65478;SHT31;53678;39.642;22.430;2022-10-19T14:47:58;21.28;43.06
65478;SHT31;53678;39.642;22.430;2022-10-19T14:50:46;21.16;42.86
65478;SHT31;53678;39.642;22.430;2022-10-19T14:53:32;21.08;43.22
65478;SHT31;53678;39.642;22.430;2022-10-19T14:56:17;21.01;43.45
65478;SHT31;53678;39.642;22.430;2022-10-19T14:59:18;21.18;43.16
65478;SHT31;53678;39.642;22.430;2022-10-19T15:01:52;21.16;43.39
65478;SHT31;53678;39.642;22.430;2022-10-19T15:04:27;21.19;43.18
65478;SHT31;53678;39.642;22.430;2022-10-19T15:06:54;21.13;43.45
65478;SHT31;53678;39.642;22.430;2022-10-19T15:09:29;21.16;43.44
65478;SHT31;53678;39.642;22.430;2022-10-19T15:12:05;21.31;42.83
65478;SHT31;53678;39.642;22.430;2022-10-19T15:14:33;20.98;43.60
65478;SHT31;53678;39.642;22.430;2022-10-19T15:17:04;20.73;44.26
65478;SHT31;53678;39.642;22.430;2022-10-19T15:19:44;20.57;45.24
65478;SHT31;53678;39.642;22.430;2022-10-19T15:24:53;20.33;46.83
65478;SHT31;53678;39.642;22.430;2022-10-19T15:27:27;20.30;47.56
65478;SHT31;53678;39.642;22.430;2022-10-19T15:30:23;20.23;48.78
65478;SHT31;53678;39.642;22.430;2022-10-19T15:33:08;20.19;48.24
65478;SHT31;53678;39.642;22.430;2022-10-19T15:35:37;20.15;47.58
65478;SHT31;53678;39.642;22.430;2022-10-19T15:38:47;20.09;48.30
65478;SHT31;53678;39.642;22.430;2022-10-19T15:41:06;20.00;49.27
65478;SHT31;53678;39.642;22.430;2022-10-19T15:43:44;19.97;50.14
65478;SHT31;53678;39.642;22.430;2022-10-19T15:51:39;19.81;49.61
65478;SHT31;53678;39.642;22.430;2022-10-19T15:54:07;19.72;49.22
65478;SHT31;53678;39.642;22.430;2022-10-19T15:56:36;19.74;49.48
65478;SHT31;53678;39.642;22.430;2022-10-19T15:59:10;19.67;49.49
65478;SHT31;53678;39.642;22.430;2022-10-19T16:01:36;19.78;49.34
65478;SHT31;53678;39.642;22.430;2022-10-19T16:04:03;19.78;50.65
65478;SHT31;53678;39.642;22.430;2022-10-19T16:06:30;19.74;51.64
65478;SHT31;53678;39.642;22.430;2022-10-19T16:08:58;19.58;52.51
65478;SHT31;53678;39.642;22.430;2022-10-19T16:11:25;19.41;53.62
65478;SHT31;53678;39.642;22.430;2022-10-19T16:13:53;19.11;55.66
65478;SHT31;53678;39.642;22.430;2022-10-19T16:16:26;19.13;55.90
65478;SHT31;53678;39.642;22.430;2022-10-19T16:18:53;18.97;56.81
65478;SHT31;53678;39.642;22.430;2022-10-19T16:21:21;18.90;57.10
65478;SHT31;53678;39.642;22.430;2022-10-19T16:23:47;18.72;57.99
65478;SHT31;53678;39.642;22.430;2022-10-19T16:26:14;18.69;58.32
65478;SHT31;53678;39.642;22.430;2022-10-19T16:28:41;18.65;58.47
65478;SHT31;53678;39.642;22.430;2022-10-19T16:31:07;18.52;58.51
65478;SHT31;53678;39.642;22.430;2022-10-19T16:33:33;18.49;58.86
65478;SHT31;53678;39.642;22.430;2022-10-19T16:36:02;18.63;58.33
65478;SHT31;53678;39.642;22.430;2022-10-19T16:38:29;18.42;58.92
65478;SHT31;53678;39.642;22.430;2022-10-19T16:41:07;18.51;58.68
65478;SHT31;53678;39.642;22.430;2022-10-19T16:43:34;18.38;59.12
65478;SHT31;53678;39.642;22.430;2022-10-19T16:46:00;18.24;59.19
65478;SHT31;53678;39.642;22.430;2022-10-19T16:48:26;18.07;59.76
65478;SHT31;53678;39.642;22.430;2022-10-19T16:53:31;18.00;59.86
65478;SHT31;53678;39.642;22.430;2022-10-19T16:56:07;17.91;60.13
65478;SHT31;53678;39.642;22.430;2022-10-19T16:58:34;17.73;60.70
65478;SHT31;53678;39.642;22.430;2022-10-19T17:01:27;17.87;60.43
65478;SHT31;53678;39.642;22.430;2022-10-19T17:03:53;17.81;60.49
65478;SHT31;53678;39.642;22.430;2022-10-19T17:06:19;17.74;60.55
65478;SHT31;53678;39.642;22.430;2022-10-19T17:08:46;17.66;60.36
65478;SHT31;53678;39.642;22.430;2022-10-19T17:11:15;17.56;59.99
65478;SHT31;53678;39.642;22.430;2022-10-19T17:13:43;17.59;59.79
65478;SHT31;53678;39.642;22.430;2022-10-19T17:16:09;17.57;59.22
65478;SHT31;53678;39.642;22.430;2022-10-19T17:18:36;17.46;59.49
65478;SHT31;53678;39.642;22.430;2022-10-19T17:21:07;17.42;59.30
65478;SHT31;53678;39.642;22.430;2022-10-19T17:23:33;17.42;59.54
65478;SHT31;53678;39.642;22.430;2022-10-19T17:25:59;17.38;59.56
65478;SHT31;53678;39.642;22.430;2022-10-19T17:28:25;17.32;60.00
65478;SHT31;53678;39.642;22.430;2022-10-19T17:30:52;17.33;60.15
65478;SHT31;53678;39.642;22.430;2022-10-19T17:33:19;17.23;60.66
65478;SHT31;53678;39.642;22.430;2022-10-19T17:35:46;17.16;60.92
65478;SHT31;53678;39.642;22.430;2022-10-19T17:38:12;17.42;60.33
65478;SHT31;53678;39.642;22.430;2022-10-19T17:40:39;17.14;61.12
65478;SHT31;53678;39.642;22.430;2022-10-19T17:43:05;17.07;61.23
65478;SHT31;53678;39.642;22.430;2022-10-19T17:45:31;17.05;61.11
65478;SHT31;53678;39.642;22.430;2022-10-19T17:47:56;17.02;60.52
65478;SHT31;53678;39.642;22.430;2022-10-19T17:50:22;16.98;60.80
65478;SHT31;53678;39.642;22.430;2022-10-19T17:52:48;16.87;61.07
65478;SHT31;53678;39.642;22.430;2022-10-19T17:55:14;16.73;61.94
65478;SHT31;53678;39.642;22.430;2022-10-19T17:57:40;16.67;62.82
65478;SHT31;53678;39.642;22.430;2022-10-19T18:00:06;16.61;62.87